sensor_id;sensor_type;location;lat;lon;timestamp;P1;durP1;ratioP1;P2;durP2;ratioP2
22904;SDS011;11619;50.140;8.518;2023-03-01T00:01:46;15.93;;;11.77;;
22904;SDS011;11619;50.140;8.518;2023-03-01T00:04:12;13.75;;;11.18;;
22904;SDS011;11619;50.140;8.518;2023-03-01T00:06:38;16.05;;;11.38;;
22904;SDS011;11619;50.140;8.518;2023-03-01T00:09:06;13.80;;;10.80;;
22904;SDS011;11619;50.140;8.518;2023-03-01T00:11:32;13.40;;;11.70;;
22904;SDS011;11619;50.140;8.518;2023-03-01T00:14:00;16.45;;;12.07;;
22904;SDS011;11619;50.140;8.518;2023-03-01T00:16:28;15.23;;;10.80;;
22904;SDS011;11619;50.140;8.518;2023-03-01T00:19:05;15.18;;;11.40;;
22904;SDS011;11619;50.140;8.518;2023-03-01T00:21:33;15.00;;;11.38;;
22904;SDS011;11619;50.140;8.518;2023-03-01T00:24:01;13.75;;;11.20;;
22904;SDS011;11619;50.140;8.518;2023-03-01T00:26:28;15.23;;;12.00;;
22904;SDS011;11619;50.140;8.518;2023-03-01T00:28:56;13.45;;;11.20;;
22904;SDS011;11619;50.140;8.518;2023-03-01T00:31:25;13.82;;;11.35;;
22904;SDS011;11619;50.140;8.518;2023-03-01T00:33:57;15.57;;;11.73;;
22904;SDS011;11619;50.140;8.518;2023-03-01T00:36:28;17.33;;;11.77;;
22904;SDS011;11619;50.140;8.518;2023-03-01T00:38:56;14.95;;;11.63;;
22904;SDS011;11619;50.140;8.518;2023-03-01T00:41:23;13.38;;;11.00;;
22904;SDS011;11619;50.140;8.518;2023-03-01T00:43:50;16.80;;;11.90;;
22904;SDS011;11619;50.140;8.518;2023-03-01T00:46:17;19.80;;;11.73;;
22904;SDS011;11619;50.140;8.518;2023-03-01T00:48:45;14.45;;;11.45;;
22904;SDS011;11619;50.140;8.518;2023-03-01T00:53:43;16.63;;;11.82;;
22904;SDS011;11619;50.140;8.518;2023-03-01T00:56:10;17.80;;;12.63;;
22904;SDS011;11619;50.140;8.518;2023-03-01T00:58:38;13.02;;;11.18;;
22904;SDS011;11619;50.140;8.518;2023-03-01T01:01:11;13.90;;;10.90;;
22904;SDS011;11619;50.140;8.518;2023-03-01T01:03:49;16.92;;;12.07;;
22904;SDS011;11619;50.140;8.518;2023-03-01T01:06:21;17.40;;;12.70;;
22904;SDS011;11619;50.140;8.518;2023-03-01T01:08:56;15.13;;;11.38;;
22904;SDS011;11619;50.140;8.518;2023-03-01T01:11:25;17.08;;;12.52;;
22904;SDS011;11619;50.140;8.518;2023-03-01T01:13:53;18.88;;;12.73;;
22904;SDS011;11619;50.140;8.518;2023-03-01T01:16:20;14.82;;;12.25;;
22904;SDS011;11619;50.140;8.518;2023-03-01T01:18:48;16.50;;;11.73;;
22904;SDS011;11619;50.140;8.518;2023-03-01T01:21:16;15.27;;;12.82;;
22904;SDS011;11619;50.140;8.518;2023-03-01T01:23:44;14.95;;;11.60;;
22904;SDS011;11619;50.140;8.518;2023-03-01T01:26:13;18.33;;;12.40;;
22904;SDS011;11619;50.140;8.518;2023-03-01T01:28:41;14.75;;;11.85;;
22904;SDS011;11619;50.140;8.518;2023-03-01T01:31:07;17.50;;;12.02;;
22904;SDS011;11619;50.140;8.518;2023-03-01T01:33:34;15.65;;;12.35;;
22904;SDS011;11619;50.140;8.518;2023-03-01T01:36:00;16.23;;;12.55;;
22904;SDS011;11619;50.140;8.518;2023-03-01T01:38:27;20.45;;;12.05;;
22904;SDS011;11619;50.140;8.518;2023-03-01T01:40:53;13.98;;;11.95;;
22904;SDS011;11619;50.140;8.518;2023-03-01T01:43:21;14.00;;;12.18;;
22904;SDS011;11619;50.140;8.518;2023-03-01T01:45:57;17.77;;;11.98;;
22904;SDS011;11619;50.140;8.518;2023-03-01T01:48:28;16.77;;;11.90;;
22904;SDS011;11619;50.140;8.518;2023-03-01T01:51:07;15.65;;;12.70;;
22904;SDS011;11619;50.140;8.518;2023-03-01T01:53:36;16.75;;;12.60;;
22904;SDS011;11619;50.140;8.518;2023-03-01T01:56:04;15.30;;;13.07;;
22904;SDS011;11619;50.140;8.518;2023-03-01T01:58:33;16.05;;;12.25;;
22904;SDS011;11619;50.140;8.518;2023-03-01T02:01:00;16.95;;;12.90;;
22904;SDS011;11619;50.140;8.518;2023-03-01T02:03:29;16.52;;;13.55;;
22904;SDS011;11619;50.140;8.518;2023-03-01T02:09:00;18.70;;;11.98;;
22904;SDS011;11619;50.140;8.518;2023-03-01T02:11:31;19.38;;;12.30;;
22904;SDS011;11619;50.140;8.518;2023-03-01T02:13:58;16.02;;;12.18;;
22904;SDS011;11619;50.140;8.518;2023-03-01T02:16:26;15.02;;;12.30;;
22904;SDS011;11619;50.140;8.518;2023-03-01T02:18:53;17.67;;;12.73;;
22904;SDS011;11619;50.140;8.518;2023-03-01T02:21:29;15.65;;;11.80;;
22904;SDS011;11619;50.140;8.518;2023-03-01T02:26:42;20.33;;;13.27;;
22904;SDS011;11619;50.140;8.518;2023-03-01T02:29:11;14.63;;;12.68;;
22904;SDS011;11619;50.140;8.518;2023-03-01T02:31:38;16.35;;;12.02;;
22904;SDS011;11619;50.140;8.518;2023-03-01T02:34:08;18.02;;;13.10;;
22904;SDS011;11619;50.140;8.518;2023-03-01T02:36:38;16.02;;;11.95;;
22904;SDS011;11619;50.140;8.518;2023-03-01T02:39:07;16.10;;;12.48;;
22904;SDS011;11619;50.140;8.518;2023-03-01T02:41:41;19.27;;;13.07;;
22904;SDS011;11619;50.140;8.518;2023-03-01T02:44:11;17.27;;;12.95;;
22904;SDS011;11619;50.140;8.518;2023-03-01T02:46:44;16.55;;;13.15;;
22904;SDS011;11619;50.140;8.518;2023-03-01T02:49:23;17.58;;;13.27;;
22904;SDS011;11619;50.140;8.518;2023-03-01T02:56:57;19.08;;;13.63;;
22904;SDS011;11619;50.140;8.518;2023-03-01T02:59:28;14.82;;;12.88;;
22904;SDS011;11619;50.140;8.518;2023-03-01T03:01:57;18.00;;;13.75;;
22904;SDS011;11619;50.140;8.518;2023-03-01T03:04:23;16.92;;;13.80;;
22904;SDS011;11619;50.140;8.518;2023-03-01T03:06:50;16.75;;;12.90;;
22904;SDS011;11619;50.140;8.518;2023-03-01T03:09:17;16.15;;;12.98;;
22904;SDS011;11619;50.140;8.518;2023-03-01T03:11:44;18.10;;;13.60;;
22904;SDS011;11619;50.140;8.518;2023-03-01T03:14:11;18.58;;;13.93;;
22904;SDS011;11619;50.140;8.518;2023-03-01T03:16:43;18.48;;;13.65;;
22904;SDS011;11619;50.140;8.518;2023-03-01T03:19:11;20.80;;;14.20;;
22904;SDS011;11619;50.140;8.518;2023-03-01T03:21:37;19.02;;;13.15;;
22904;SDS011;11619;50.140;8.518;2023-03-01T03:24:04;19.30;;;13.85;;
22904;SDS011;11619;50.140;8.518;2023-03-01T03:26:31;17.35;;;13.80;;
22904;SDS011;11619;50.140;8.518;2023-03-01T03:28:58;18.77;;;13.77;;
22904;SDS011;11619;50.140;8.518;2023-03-01T03:31:25;18.52;;;13.48;;
22904;SDS011;11619;50.140;8.518;2023-03-01T03:33:51;15.70;;;12.88;;
22904;SDS011;11619;50.140;8.518;2023-03-01T03:36:19;18.05;;;13.60;;
22904;SDS011;11619;50.140;8.518;2023-03-01T03:38:47;16.65;;;13.45;;
22904;SDS011;11619;50.140;8.518;2023-03-01T03:41:13;17.38;;;13.73;;
22904;SDS011;11619;50.140;8.518;2023-03-01T03:43:40;17.77;;;14.63;;
22904;SDS011;11619;50.140;8.518;2023-03-01T03:46:09;18.08;;;14.57;;
22904;SDS011;11619;50.140;8.518;2023-03-01T03:48:37;20.27;;;14.55;;
22904;SDS011;11619;50.140;8.518;2023-03-01T03:51:13;18.83;;;14.65;;
22904;SDS011;11619;50.140;8.518;2023-03-01T03:53:40;16.88;;;13.82;;
22904;SDS011;11619;50.140;8.518;2023-03-01T03:56:07;18.83;;;14.05;;
22904;SDS011;11619;50.140;8.518;2023-03-01T03:58:34;19.73;;;14.57;;
22904;SDS011;11619;50.140;8.518;2023-03-01T04:01:00;20.17;;;14.85;;
22904;SDS011;11619;50.140;8.518;2023-03-01T04:03:27;19.10;;;14.75;;
22904;SDS011;11619;50.140;8.518;2023-03-01T04:05:56;20.80;;;15.50;;
22904;SDS011;11619;50.140;8.518;2023-03-01T04:08:23;17.83;;;14.77;;
22904;SDS011;11619;50.140;8.518;2023-03-01T04:10:51;29.65;;;15.18;;
22904;SDS011;11619;50.140;8.518;2023-03-01T04:13:20;20.85;;;15.90;;
22904;SDS011;11619;50.140;8.518;2023-03-01T04:15:53;20.30;;;15.25;;
22904;SDS011;11619;50.140;8.518;2023-03-01T04:18:21;18.33;;;14.33;;
22904;SDS011;11619;50.140;8.518;2023-03-01T04:20:48;18.85;;;15.30;;
22904;SDS011;11619;50.140;8.518;2023-03-01T04:23:18;17.50;;;14.98;;
22904;SDS011;11619;50.140;8.518;2023-03-01T04:25:48;18.30;;;14.18;;
22904;SDS011;11619;50.140;8.518;2023-03-01T04:28:29;17.58;;;14.55;;
22904;SDS011;11619;50.140;8.518;2023-03-01T04:31:03;18.33;;;14.02;;
22904;SDS011;11619;50.140;8.518;2023-03-01T04:33:40;18.10;;;14.25;;
22904;SDS011;11619;50.140;8.518;2023-03-01T04:36:07;21.73;;;15.13;;
22904;SDS011;11619;50.140;8.518;2023-03-01T04:38:35;20.00;;;14.98;;
22904;SDS011;11619;50.140;8.518;2023-03-01T04:41:04;17.42;;;14.90;;
22904;SDS011;11619;50.140;8.518;2023-03-01T04:43:31;18.50;;;14.45;;
22904;SDS011;11619;50.140;8.518;2023-03-01T04:46:08;21.45;;;15.65;;
22904;SDS011;11619;50.140;8.518;2023-03-01T04:48:36;21.42;;;14.55;;
22904;SDS011;11619;50.140;8.518;2023-03-01T04:51:03;22.90;;;14.93;;
22904;SDS011;11619;50.140;8.518;2023-03-01T04:53:30;21.80;;;15.63;;
22904;SDS011;11619;50.140;8.518;2023-03-01T04:55:56;21.40;;;16.27;;
22904;SDS011;11619;50.140;8.518;2023-03-01T04:58:23;21.27;;;15.18;;
22904;SDS011;11619;50.140;8.518;2023-03-01T05:00:50;20.90;;;15.43;;
22904;SDS011;11619;50.140;8.518;2023-03-01T05:03:17;19.27;;;15.55;;
22904;SDS011;11619;50.140;8.518;2023-03-01T05:05:44;19.98;;;14.73;;
22904;SDS011;11619;50.140;8.518;2023-03-01T05:08:13;22.60;;;14.88;;
22904;SDS011;11619;50.140;8.518;2023-03-01T05:10:44;21.92;;;15.35;;
22904;SDS011;11619;50.140;8.518;2023-03-01T05:13:13;20.15;;;15.93;;
22904;SDS011;11619;50.140;8.518;2023-03-01T05:15:41;20.30;;;14.95;;
22904;SDS011;11619;50.140;8.518;2023-03-01T05:18:08;20.10;;;14.02;;
22904;SDS011;11619;50.140;8.518;2023-03-01T05:20:37;18.33;;;13.70;;
22904;SDS011;11619;50.140;8.518;2023-03-01T05:23:04;18.85;;;13.88;;
22904;SDS011;11619;50.140;8.518;2023-03-01T05:25:34;20.67;;;15.02;;
22904;SDS011;11619;50.140;8.518;2023-03-01T05:28:01;23.25;;;15.57;;
22904;SDS011;11619;50.140;8.518;2023-03-01T05:30:31;21.67;;;14.93;;
22904;SDS011;11619;50.140;8.518;2023-03-01T05:32:58;20.90;;;15.48;;
22904;SDS011;11619;50.140;8.518;2023-03-01T05:35:25;19.90;;;15.25;;
22904;SDS011;11619;50.140;8.518;2023-03-01T05:37:52;19.20;;;14.40;;
22904;SDS011;11619;50.140;8.518;2023-03-01T05:40:20;20.45;;;15.52;;
22904;SDS011;11619;50.140;8.518;2023-03-01T05:42:49;18.35;;;14.57;;
22904;SDS011;11619;50.140;8.518;2023-03-01T05:45:20;19.70;;;14.10;;
22904;SDS011;11619;50.140;8.518;2023-03-01T05:47:47;21.95;;;13.98;;
22904;SDS011;11619;50.140;8.518;2023-03-01T05:50:16;48.80;;;20.67;;
22904;SDS011;11619;50.140;8.518;2023-03-01T05:52:47;51.42;;;26.35;;
22904;SDS011;11619;50.140;8.518;2023-03-01T05:55:15;34.10;;;23.67;;
22904;SDS011;11619;50.140;8.518;2023-03-01T05:57:42;40.08;;;24.05;;
22904;SDS011;11619;50.140;8.518;2023-03-01T06:00:09;21.20;;;15.88;;
22904;SDS011;11619;50.140;8.518;2023-03-01T06:02:37;15.15;;;13.48;;
22904;SDS011;11619;50.140;8.518;2023-03-01T06:05:04;15.90;;;12.70;;
22904;SDS011;11619;50.140;8.518;2023-03-01T06:07:32;18.20;;;13.95;;
22904;SDS011;11619;50.140;8.518;2023-03-01T06:09:59;16.50;;;13.02;;
22904;SDS011;11619;50.140;8.518;2023-03-01T06:12:25;16.27;;;13.85;;
22904;SDS011;11619;50.140;8.518;2023-03-01T06:14:52;18.17;;;14.23;;
22904;SDS011;11619;50.140;8.518;2023-03-01T06:17:18;17.77;;;13.98;;
22904;SDS011;11619;50.140;8.518;2023-03-01T06:19:46;16.35;;;13.15;;
22904;SDS011;11619;50.140;8.518;2023-03-01T06:22:13;19.85;;;14.75;;
22904;SDS011;11619;50.140;8.518;2023-03-01T06:24:39;18.55;;;14.60;;
22904;SDS011;11619;50.140;8.518;2023-03-01T06:27:05;18.73;;;14.20;;
22904;SDS011;11619;50.140;8.518;2023-03-01T06:29:32;19.52;;;14.27;;
22904;SDS011;11619;50.140;8.518;2023-03-01T06:31:58;19.55;;;14.75;;
22904;SDS011;11619;50.140;8.518;2023-03-01T06:34:24;16.52;;;13.57;;
22904;SDS011;11619;50.140;8.518;2023-03-01T06:36:51;17.35;;;13.75;;
22904;SDS011;11619;50.140;8.518;2023-03-01T06:39:17;18.60;;;13.07;;
22904;SDS011;11619;50.140;8.518;2023-03-01T06:41:44;18.30;;;13.65;;
22904;SDS011;11619;50.140;8.518;2023-03-01T06:44:10;18.63;;;12.77;;
22904;SDS011;11619;50.140;8.518;2023-03-01T06:46:38;17.08;;;14.00;;
22904;SDS011;11619;50.140;8.518;2023-03-01T06:49:05;20.35;;;14.15;;
22904;SDS011;11619;50.140;8.518;2023-03-01T06:51:38;17.00;;;13.27;;
22904;SDS011;11619;50.140;8.518;2023-03-01T06:54:04;19.02;;;13.88;;
22904;SDS011;11619;50.140;8.518;2023-03-01T06:56:31;18.60;;;14.05;;
22904;SDS011;11619;50.140;8.518;2023-03-01T06:58:58;19.58;;;13.18;;
22904;SDS011;11619;50.140;8.518;2023-03-01T07:01:28;15.07;;;11.80;;
22904;SDS011;11619;50.140;8.518;2023-03-01T07:03:55;18.00;;;12.00;;
22904;SDS011;11619;50.140;8.518;2023-03-01T07:06:22;18.42;;;13.95;;
22904;SDS011;11619;50.140;8.518;2023-03-01T07:08:48;19.77;;;13.98;;
22904;SDS011;11619;50.140;8.518;2023-03-01T07:11:15;17.67;;;12.73;;
22904;SDS011;11619;50.140;8.518;2023-03-01T07:13:42;16.25;;;12.77;;
22904;SDS011;11619;50.140;8.518;2023-03-01T07:16:08;17.58;;;13.70;;
22904;SDS011;11619;50.140;8.518;2023-03-01T07:18:34;19.90;;;14.05;;
22904;SDS011;11619;50.140;8.518;2023-03-01T07:21:07;32.40;;;19.10;;
22904;SDS011;11619;50.140;8.518;2023-03-01T07:23:35;20.90;;;15.95;;
22904;SDS011;11619;50.140;8.518;2023-03-01T07:26:01;24.17;;;16.55;;
22904;SDS011;11619;50.140;8.518;2023-03-01T07:28:28;21.25;;;13.82;;
22904;SDS011;11619;50.140;8.518;2023-03-01T07:30:55;19.40;;;13.30;;
22904;SDS011;11619;50.140;8.518;2023-03-01T07:33:21;15.43;;;12.35;;
22904;SDS011;11619;50.140;8.518;2023-03-01T07:35:47;18.23;;;13.77;;
22904;SDS011;11619;50.140;8.518;2023-03-01T07:38:14;18.05;;;13.45;;
22904;SDS011;11619;50.140;8.518;2023-03-01T07:40:40;17.00;;;13.88;;
22904;SDS011;11619;50.140;8.518;2023-03-01T07:43:07;16.65;;;11.80;;
22904;SDS011;11619;50.140;8.518;2023-03-01T07:45:33;15.30;;;12.77;;
22904;SDS011;11619;50.140;8.518;2023-03-01T07:47:59;15.88;;;12.85;;
22904;SDS011;11619;50.140;8.518;2023-03-01T07:50:26;15.85;;;12.82;;
22904;SDS011;11619;50.140;8.518;2023-03-01T07:52:52;16.42;;;12.60;;
22904;SDS011;11619;50.140;8.518;2023-03-01T07:55:19;15.40;;;13.35;;
22904;SDS011;11619;50.140;8.518;2023-03-01T07:57:46;21.00;;;13.45;;
22904;SDS011;11619;50.140;8.518;2023-03-01T08:00:12;14.35;;;11.88;;
22904;SDS011;11619;50.140;8.518;2023-03-01T08:02:39;16.80;;;13.18;;
22904;SDS011;11619;50.140;8.518;2023-03-01T08:05:08;18.75;;;13.68;;
22904;SDS011;11619;50.140;8.518;2023-03-01T08:07:36;16.67;;;13.50;;
22904;SDS011;11619;50.140;8.518;2023-03-01T08:10:02;18.52;;;14.23;;
22904;SDS011;11619;50.140;8.518;2023-03-01T08:12:29;18.40;;;13.82;;
22904;SDS011;11619;50.140;8.518;2023-03-01T08:14:55;16.48;;;13.55;;
22904;SDS011;11619;50.140;8.518;2023-03-01T08:17:23;18.52;;;13.82;;
22904;SDS011;11619;50.140;8.518;2023-03-01T08:19:49;18.50;;;13.93;;
22904;SDS011;11619;50.140;8.518;2023-03-01T08:22:15;15.35;;;13.20;;
22904;SDS011;11619;50.140;8.518;2023-03-01T08:24:42;17.30;;;14.00;;
22904;SDS011;11619;50.140;8.518;2023-03-01T08:27:08;15.50;;;13.32;;
22904;SDS011;11619;50.140;8.518;2023-03-01T08:29:35;17.23;;;13.60;;
22904;SDS011;11619;50.140;8.518;2023-03-01T08:32:01;17.33;;;13.88;;
22904;SDS011;11619;50.140;8.518;2023-03-01T08:34:28;17.30;;;14.60;;
22904;SDS011;11619;50.140;8.518;2023-03-01T08:36:54;18.75;;;13.82;;
22904;SDS011;11619;50.140;8.518;2023-03-01T08:39:21;22.00;;;13.60;;
22904;SDS011;11619;50.140;8.518;2023-03-01T08:41:47;19.02;;;14.55;;
22904;SDS011;11619;50.140;8.518;2023-03-01T08:44:14;17.95;;;13.45;;
22904;SDS011;11619;50.140;8.518;2023-03-01T08:46:42;18.27;;;14.52;;
22904;SDS011;11619;50.140;8.518;2023-03-01T08:49:13;17.42;;;13.30;;
22904;SDS011;11619;50.140;8.518;2023-03-01T08:51:41;17.30;;;13.88;;
22904;SDS011;11619;50.140;8.518;2023-03-01T08:54:14;17.95;;;13.90;;
22904;SDS011;11619;50.140;8.518;2023-03-01T08:56:42;18.73;;;13.90;;
22904;SDS011;11619;50.140;8.518;2023-03-01T08:59:09;16.38;;;13.88;;
22904;SDS011;11619;50.140;8.518;2023-03-01T09:01:36;17.27;;;13.35;;
22904;SDS011;11619;50.140;8.518;2023-03-01T09:04:03;17.83;;;14.05;;
22904;SDS011;11619;50.140;8.518;2023-03-01T09:06:30;17.85;;;12.90;;
22904;SDS011;11619;50.140;8.518;2023-03-01T09:08:59;16.23;;;12.82;;
22904;SDS011;11619;50.140;8.518;2023-03-01T09:11:25;16.65;;;12.73;;
22904;SDS011;11619;50.140;8.518;2023-03-01T09:13:52;17.95;;;14.35;;
22904;SDS011;11619;50.140;8.518;2023-03-01T09:16:19;21.02;;;14.25;;
22904;SDS011;11619;50.140;8.518;2023-03-01T09:18:53;16.98;;;12.90;;
22904;SDS011;11619;50.140;8.518;2023-03-01T09:21:21;16.83;;;13.00;;
22904;SDS011;11619;50.140;8.518;2023-03-01T09:24:04;19.30;;;13.63;;
22904;SDS011;11619;50.140;8.518;2023-03-01T09:26:31;18.20;;;14.00;;
22904;SDS011;11619;50.140;8.518;2023-03-01T09:28:58;17.73;;;13.77;;
22904;SDS011;11619;50.140;8.518;2023-03-01T09:31:24;16.23;;;12.77;;
22904;SDS011;11619;50.140;8.518;2023-03-01T09:33:52;15.95;;;12.88;;
22904;SDS011;11619;50.140;8.518;2023-03-01T09:36:19;16.00;;;13.13;;
22904;SDS011;11619;50.140;8.518;2023-03-01T09:38:48;18.35;;;13.25;;
22904;SDS011;11619;50.140;8.518;2023-03-01T09:41:22;16.67;;;13.10;;
22904;SDS011;11619;50.140;8.518;2023-03-01T09:44:00;17.42;;;13.73;;
22904;SDS011;11619;50.140;8.518;2023-03-01T09:46:31;18.80;;;13.73;;
22904;SDS011;11619;50.140;8.518;2023-03-01T09:49:05;16.17;;;13.02;;
22904;SDS011;11619;50.140;8.518;2023-03-01T09:51:37;17.77;;;14.35;;
22904;SDS011;11619;50.140;8.518;2023-03-01T09:54:04;18.17;;;13.95;;
22904;SDS011;11619;50.140;8.518;2023-03-01T09:56:36;22.15;;;14.60;;
22904;SDS011;11619;50.140;8.518;2023-03-01T09:59:09;17.95;;;14.30;;
22904;SDS011;11619;50.140;8.518;2023-03-01T10:07:32;17.88;;;14.07;;
22904;SDS011;11619;50.140;8.518;2023-03-01T10:10:28;17.60;;;14.40;;
22904;SDS011;11619;50.140;8.518;2023-03-01T10:12:57;17.27;;;13.40;;
22904;SDS011;11619;50.140;8.518;2023-03-01T10:15:34;20.25;;;14.90;;
22904;SDS011;11619;50.140;8.518;2023-03-01T10:18:21;18.50;;;13.93;;
22904;SDS011;11619;50.140;8.518;2023-03-01T10:20:58;18.70;;;13.93;;
22904;SDS011;11619;50.140;8.518;2023-03-01T10:23:27;18.33;;;14.05;;
22904;SDS011;11619;50.140;8.518;2023-03-01T10:26:01;20.25;;;14.20;;
22904;SDS011;11619;50.140;8.518;2023-03-01T10:31:24;19.55;;;14.05;;
22904;SDS011;11619;50.140;8.518;2023-03-01T10:33:55;18.65;;;14.80;;
22904;SDS011;11619;50.140;8.518;2023-03-01T10:36:24;16.40;;;13.88;;
22904;SDS011;11619;50.140;8.518;2023-03-01T10:38:54;17.90;;;14.27;;
22904;SDS011;11619;50.140;8.518;2023-03-01T10:41:23;19.17;;;14.30;;
22904;SDS011;11619;50.140;8.518;2023-03-01T10:43:56;17.67;;;13.68;;
22904;SDS011;11619;50.140;8.518;2023-03-01T10:46:30;18.40;;;13.55;;
22904;SDS011;11619;50.140;8.518;2023-03-01T10:51:52;15.98;;;12.98;;
22904;SDS011;11619;50.140;8.518;2023-03-01T10:54:22;17.10;;;13.88;;
22904;SDS011;11619;50.140;8.518;2023-03-01T10:56:54;16.80;;;13.35;;
22904;SDS011;11619;50.140;8.518;2023-03-01T10:59:26;15.98;;;13.38;;
22904;SDS011;11619;50.140;8.518;2023-03-01T11:02:01;17.98;;;12.73;;
22904;SDS011;11619;50.140;8.518;2023-03-01T11:04:59;15.60;;;12.95;;
22904;SDS011;11619;50.140;8.518;2023-03-01T11:07:27;14.82;;;12.93;;
22904;SDS011;11619;50.140;8.518;2023-03-01T11:09:54;18.48;;;13.23;;
22904;SDS011;11619;50.140;8.518;2023-03-01T11:12:21;15.05;;;13.00;;
22904;SDS011;11619;50.140;8.518;2023-03-01T11:14:49;15.20;;;13.55;;
22904;SDS011;11619;50.140;8.518;2023-03-01T11:17:26;15.25;;;12.95;;
22904;SDS011;11619;50.140;8.518;2023-03-01T11:20:05;15.27;;;12.73;;
22904;SDS011;11619;50.140;8.518;2023-03-01T11:23:14;14.10;;;11.98;;
22904;SDS011;11619;50.140;8.518;2023-03-01T11:25:40;15.88;;;12.68;;
22904;SDS011;11619;50.140;8.518;2023-03-01T11:28:10;16.27;;;12.40;;
22904;SDS011;11619;50.140;8.518;2023-03-01T11:30:57;14.52;;;12.13;;
22904;SDS011;11619;50.140;8.518;2023-03-01T11:33:40;17.90;;;12.63;;
22904;SDS011;11619;50.140;8.518;2023-03-01T11:36:24;15.57;;;12.18;;
22904;SDS011;11619;50.140;8.518;2023-03-01T11:38:55;13.40;;;11.70;;
22904;SDS011;11619;50.140;8.518;2023-03-01T11:41:26;14.95;;;11.93;;
22904;SDS011;11619;50.140;8.518;2023-03-01T11:52:35;13.50;;;10.70;;
22904;SDS011;11619;50.140;8.518;2023-03-01T11:55:12;13.75;;;11.63;;
22904;SDS011;11619;50.140;8.518;2023-03-01T12:06:32;12.32;;;10.60;;
22904;SDS011;11619;50.140;8.518;2023-03-01T12:09:17;12.90;;;11.52;;
22904;SDS011;11619;50.140;8.518;2023-03-01T12:17:08;13.68;;;10.68;;
22904;SDS011;11619;50.140;8.518;2023-03-01T12:20:07;13.98;;;10.80;;
22904;SDS011;11619;50.140;8.518;2023-03-01T12:23:01;11.27;;;10.07;;
22904;SDS011;11619;50.140;8.518;2023-03-01T12:25:52;11.07;;;9.85;;
22904;SDS011;11619;50.140;8.518;2023-03-01T12:28:29;11.07;;;9.88;;
22904;SDS011;11619;50.140;8.518;2023-03-01T12:31:25;14.80;;;10.70;;
22904;SDS011;11619;50.140;8.518;2023-03-01T12:39:53;11.18;;;9.73;;
22904;SDS011;11619;50.140;8.518;2023-03-01T12:50:47;11.57;;;9.18;;
22904;SDS011;11619;50.140;8.518;2023-03-01T12:53:19;13.38;;;9.95;;
22904;SDS011;11619;50.140;8.518;2023-03-01T13:11:54;13.35;;;9.52;;
22904;SDS011;11619;50.140;8.518;2023-03-01T13:16:47;10.80;;;9.52;;
22904;SDS011;11619;50.140;8.518;2023-03-01T13:19:16;9.90;;;8.40;;
22904;SDS011;11619;50.140;8.518;2023-03-01T13:21:50;10.77;;;9.00;;
22904;SDS011;11619;50.140;8.518;2023-03-01T13:24:27;12.18;;;9.27;;
22904;SDS011;11619;50.140;8.518;2023-03-01T13:29:44;11.40;;;8.90;;
22904;SDS011;11619;50.140;8.518;2023-03-01T13:37:47;12.10;;;9.25;;
22904;SDS011;11619;50.140;8.518;2023-03-01T13:42:48;10.55;;;8.98;;
22904;SDS011;11619;50.140;8.518;2023-03-01T13:45:38;11.95;;;9.30;;
22904;SDS011;11619;50.140;8.518;2023-03-01T13:48:16;9.68;;;7.97;;
22904;SDS011;11619;50.140;8.518;2023-03-01T13:50:48;13.45;;;8.85;;
22904;SDS011;11619;50.140;8.518;2023-03-01T13:53:18;10.48;;;8.93;;
22904;SDS011;11619;50.140;8.518;2023-03-01T13:55:50;13.65;;;9.10;;
22904;SDS011;11619;50.140;8.518;2023-03-01T13:58:22;12.40;;;8.68;;
22904;SDS011;11619;50.140;8.518;2023-03-01T14:01:02;9.80;;;8.25;;
22904;SDS011;11619;50.140;8.518;2023-03-01T14:03:31;9.95;;;8.27;;
22904;SDS011;11619;50.140;8.518;2023-03-01T14:08:41;9.45;;;7.90;;
22904;SDS011;11619;50.140;8.518;2023-03-01T14:16:42;10.13;;;8.95;;
22904;SDS011;11619;50.140;8.518;2023-03-01T14:19:30;10.55;;;8.48;;
22904;SDS011;11619;50.140;8.518;2023-03-01T14:24:30;11.48;;;9.05;;
22904;SDS011;11619;50.140;8.518;2023-03-01T14:27:00;9.52;;;8.52;;
22904;SDS011;11619;50.140;8.518;2023-03-01T14:29:33;11.07;;;9.32;;
22904;SDS011;11619;50.140;8.518;2023-03-01T14:32:11;12.98;;;8.52;;
22904;SDS011;11619;50.140;8.518;2023-03-01T14:34:47;10.10;;;8.43;;
22904;SDS011;11619;50.140;8.518;2023-03-01T14:37:22;10.23;;;8.35;;
22904;SDS011;11619;50.140;8.518;2023-03-01T14:39:58;16.88;;;8.63;;
22904;SDS011;11619;50.140;8.518;2023-03-01T14:42:28;12.73;;;9.50;;
22904;SDS011;11619;50.140;8.518;2023-03-01T14:44:56;10.68;;;8.98;;
22904;SDS011;11619;50.140;8.518;2023-03-01T14:47:35;11.68;;;9.02;;
22904;SDS011;11619;50.140;8.518;2023-03-01T14:50:04;9.77;;;8.65;;
22904;SDS011;11619;50.140;8.518;2023-03-01T14:52:33;9.85;;;8.50;;
22904;SDS011;11619;50.140;8.518;2023-03-01T14:55:03;12.02;;;8.98;;
22904;SDS011;11619;50.140;8.518;2023-03-01T14:57:31;10.40;;;9.20;;
22904;SDS011;11619;50.140;8.518;2023-03-01T14:59:58;10.90;;;8.27;;
22904;SDS011;11619;50.140;8.518;2023-03-01T15:02:29;11.52;;;8.23;;
22904;SDS011;11619;50.140;8.518;2023-03-01T15:04:57;12.10;;;8.98;;
22904;SDS011;11619;50.140;8.518;2023-03-01T15:07:28;12.63;;;9.82;;
22904;SDS011;11619;50.140;8.518;2023-03-01T15:09:57;11.63;;;9.45;;
22904;SDS011;11619;50.140;8.518;2023-03-01T15:14:54;13.40;;;8.77;;
22904;SDS011;11619;50.140;8.518;2023-03-01T15:17:33;10.85;;;8.77;;
22904;SDS011;11619;50.140;8.518;2023-03-01T15:20:03;10.95;;;8.40;;
22904;SDS011;11619;50.140;8.518;2023-03-01T15:22:31;9.80;;;8.23;;
22904;SDS011;11619;50.140;8.518;2023-03-01T15:24:58;9.60;;;8.32;;
22904;SDS011;11619;50.140;8.518;2023-03-01T15:27:25;10.43;;;8.48;;
22904;SDS011;11619;50.140;8.518;2023-03-01T15:29:52;9.07;;;8.20;;
22904;SDS011;11619;50.140;8.518;2023-03-01T15:32:25;10.80;;;8.82;;
22904;SDS011;11619;50.140;8.518;2023-03-01T15:35:32;12.32;;;8.95;;
22904;SDS011;11619;50.140;8.518;2023-03-01T15:38:04;8.82;;;7.93;;
22904;SDS011;11619;50.140;8.518;2023-03-01T15:40:30;11.57;;;9.02;;
22904;SDS011;11619;50.140;8.518;2023-03-01T15:43:00;12.93;;;9.60;;
22904;SDS011;11619;50.140;8.518;2023-03-01T15:45:27;15.20;;;8.55;;
22904;SDS011;11619;50.140;8.518;2023-03-01T15:47:56;11.52;;;9.02;;
22904;SDS011;11619;50.140;8.518;2023-03-01T15:50:25;11.95;;;8.48;;
22904;SDS011;11619;50.140;8.518;2023-03-01T15:52:54;10.27;;;8.38;;
22904;SDS011;11619;50.140;8.518;2023-03-01T15:55:22;12.35;;;8.82;;
22904;SDS011;11619;50.140;8.518;2023-03-01T15:57:59;10.48;;;8.40;;
22904;SDS011;11619;50.140;8.518;2023-03-01T16:00:27;14.70;;;9.23;;
22904;SDS011;11619;50.140;8.518;2023-03-01T16:02:55;10.70;;;8.90;;
22904;SDS011;11619;50.140;8.518;2023-03-01T16:05:22;11.93;;;9.10;;
22904;SDS011;11619;50.140;8.518;2023-03-01T16:07:53;10.27;;;9.05;;
22904;SDS011;11619;50.140;8.518;2023-03-01T16:10:20;10.88;;;8.38;;
22904;SDS011;11619;50.140;8.518;2023-03-01T16:12:47;10.15;;;8.90;;
22904;SDS011;11619;50.140;8.518;2023-03-01T16:15:15;11.02;;;8.88;;
22904;SDS011;11619;50.140;8.518;2023-03-01T16:17:44;11.05;;;8.50;;
22904;SDS011;11619;50.140;8.518;2023-03-01T16:20:11;11.98;;;9.27;;
22904;SDS011;11619;50.140;8.518;2023-03-01T16:22:48;10.63;;;9.05;;
22904;SDS011;11619;50.140;8.518;2023-03-01T16:25:16;11.63;;;8.88;;